sensor_id;sensor_type;location;lat;lon;timestamp;P1;durP1;ratioP1;P2;durP2;ratioP2
14021;SDS011;7086;48.116;11.580;2024-03-07T00:00:34;6.88;;;6.40;;
14021;SDS011;7086;48.116;11.580;2024-03-07T00:03:05;8.23;;;7.53;;
14021;SDS011;7086;48.116;11.580;2024-03-07T00:05:50;7.93;;;7.32;;
14021;SDS011;7086;48.116;11.580;2024-03-07T00:08:25;8.50;;;7.70;;
14021;SDS011;7086;48.116;11.580;2024-03-07T00:11:03;7.75;;;7.07;;
14021;SDS011;7086;48.116;11.580;2024-03-07T00:13:43;6.47;;;6.07;;
14021;SDS011;7086;48.116;11.580;2024-03-07T00:16:34;7.82;;;7.30;;
14021;SDS011;7086;48.116;11.580;2024-03-07T00:19:06;8.02;;;7.18;;
14021;SDS011;7086;48.116;11.580;2024-03-07T00:22:12;6.68;;;6.20;;
14021;SDS011;7086;48.116;11.580;2024-03-07T00:27:31;9.40;;;8.48;;
14021;SDS011;7086;48.116;11.580;2024-03-07T00:30:13;9.00;;;8.10;;
14021;SDS011;7086;48.116;11.580;2024-03-07T00:32:43;9.05;;;8.18;;
14021;SDS011;7086;48.116;11.580;2024-03-07T00:35:12;9.82;;;8.07;;
14021;SDS011;7086;48.116;11.580;2024-03-07T00:37:40;8.55;;;7.75;;
14021;SDS011;7086;48.116;11.580;2024-03-07T00:40:08;8.73;;;7.93;;
14021;SDS011;7086;48.116;11.580;2024-03-07T00:42:39;9.80;;;8.90;;
14021;SDS011;7086;48.116;11.580;2024-03-07T00:45:08;9.98;;;9.02;;
14021;SDS011;7086;48.116;11.580;2024-03-07T00:47:36;10.15;;;9.15;;
14021;SDS011;7086;48.116;11.580;2024-03-07T00:50:06;9.98;;;8.73;;
14021;SDS011;7086;48.116;11.580;2024-03-07T00:52:36;10.38;;;9.35;;
14021;SDS011;7086;48.116;11.580;2024-03-07T00:55:04;9.70;;;8.60;;
14021;SDS011;7086;48.116;11.580;2024-03-07T00:57:35;10.32;;;9.25;;
14021;SDS011;7086;48.116;11.580;2024-03-07T01:00:04;10.75;;;9.57;;
14021;SDS011;7086;48.116;11.580;2024-03-07T01:02:39;10.98;;;9.48;;
14021;SDS011;7086;48.116;11.580;2024-03-07T01:05:08;9.07;;;8.27;;
14021;SDS011;7086;48.116;11.580;2024-03-07T01:07:38;13.55;;;10.82;;
14021;SDS011;7086;48.116;11.580;2024-03-07T01:10:06;11.57;;;10.18;;
14021;SDS011;7086;48.116;11.580;2024-03-07T01:12:34;10.43;;;9.30;;
14021;SDS011;7086;48.116;11.580;2024-03-07T01:15:03;10.48;;;9.50;;
14021;SDS011;7086;48.116;11.580;2024-03-07T01:17:32;12.50;;;10.80;;
14021;SDS011;7086;48.116;11.580;2024-03-07T01:20:00;13.00;;;11.40;;
14021;SDS011;7086;48.116;11.580;2024-03-07T01:22:28;13.50;;;10.82;;
14021;SDS011;7086;48.116;11.580;2024-03-07T01:24:55;14.32;;;10.75;;
14021;SDS011;7086;48.116;11.580;2024-03-07T01:27:23;11.73;;;10.25;;
14021;SDS011;7086;48.116;11.580;2024-03-07T01:29:50;15.27;;;11.60;;
14021;SDS011;7086;48.116;11.580;2024-03-07T01:32:20;11.10;;;10.05;;
14021;SDS011;7086;48.116;11.580;2024-03-07T01:34:48;11.45;;;10.38;;
14021;SDS011;7086;48.116;11.580;2024-03-07T01:37:16;12.93;;;11.48;;
14021;SDS011;7086;48.116;11.580;2024-03-07T01:39:43;14.65;;;12.00;;
14021;SDS011;7086;48.116;11.580;2024-03-07T01:42:14;13.07;;;10.68;;
14021;SDS011;7086;48.116;11.580;2024-03-07T01:44:42;13.73;;;11.85;;
14021;SDS011;7086;48.116;11.580;2024-03-07T01:47:10;14.63;;;12.25;;
14021;SDS011;7086;48.116;11.580;2024-03-07T01:49:39;11.13;;;10.10;;
14021;SDS011;7086;48.116;11.580;2024-03-07T01:52:06;11.07;;;9.98;;
14021;SDS011;7086;48.116;11.580;2024-03-07T01:54:36;12.25;;;11.05;;
14021;SDS011;7086;48.116;11.580;2024-03-07T01:57:03;14.70;;;12.25;;
14021;SDS011;7086;48.116;11.580;2024-03-07T01:59:31;13.80;;;11.88;;
14021;SDS011;7086;48.116;11.580;2024-03-07T02:02:00;15.85;;;11.43;;
14021;SDS011;7086;48.116;11.580;2024-03-07T02:04:27;13.50;;;11.10;;
14021;SDS011;7086;48.116;11.580;2024-03-07T02:06:57;11.38;;;10.25;;
14021;SDS011;7086;48.116;11.580;2024-03-07T02:09:24;17.27;;;13.18;;
14021;SDS011;7086;48.116;11.580;2024-03-07T02:11:52;11.68;;;10.57;;
14021;SDS011;7086;48.116;11.580;2024-03-07T02:14:21;13.25;;;11.95;;
14021;SDS011;7086;48.116;11.580;2024-03-07T02:16:48;16.67;;;13.98;;
14021;SDS011;7086;48.116;11.580;2024-03-07T02:19:16;20.27;;;12.65;;
14021;SDS011;7086;48.116;11.580;2024-03-07T02:21:45;17.30;;;13.35;;
14021;SDS011;7086;48.116;11.580;2024-03-07T02:24:12;16.70;;;13.52;;
14021;SDS011;7086;48.116;11.580;2024-03-07T02:26:41;19.58;;;13.57;;
14021;SDS011;7086;48.116;11.580;2024-03-07T02:29:08;18.13;;;12.77;;
14021;SDS011;7086;48.116;11.580;2024-03-07T02:31:36;18.35;;;14.25;;
14021;SDS011;7086;48.116;11.580;2024-03-07T02:34:06;17.45;;;13.45;;
14021;SDS011;7086;48.116;11.580;2024-03-07T02:36:34;18.58;;;13.32;;
14021;SDS011;7086;48.116;11.580;2024-03-07T02:39:03;22.83;;;15.05;;
14021;SDS011;7086;48.116;11.580;2024-03-07T02:41:31;17.35;;;13.77;;
14021;SDS011;7086;48.116;11.580;2024-03-07T02:44:00;18.33;;;14.80;;
14021;SDS011;7086;48.116;11.580;2024-03-07T02:46:28;18.15;;;14.75;;
14021;SDS011;7086;48.116;11.580;2024-03-07T02:48:57;20.85;;;14.55;;
14021;SDS011;7086;48.116;11.580;2024-03-07T02:51:25;23.60;;;15.00;;
14021;SDS011;7086;48.116;11.580;2024-03-07T02:53:52;18.75;;;14.32;;
14021;SDS011;7086;48.116;11.580;2024-03-07T02:56:21;24.02;;;16.25;;
14021;SDS011;7086;48.116;11.580;2024-03-07T02:58:49;22.70;;;16.42;;
14021;SDS011;7086;48.116;11.580;2024-03-07T03:01:16;22.23;;;16.52;;
14021;SDS011;7086;48.116;11.580;2024-03-07T03:03:44;18.70;;;15.60;;
14021;SDS011;7086;48.116;11.580;2024-03-07T03:06:12;23.77;;;17.98;;
14021;SDS011;7086;48.116;11.580;2024-03-07T03:08:39;25.85;;;18.88;;
14021;SDS011;7086;48.116;11.580;2024-03-07T03:11:07;22.30;;;17.73;;
14021;SDS011;7086;48.116;11.580;2024-03-07T03:13:35;24.80;;;18.65;;
14021;SDS011;7086;48.116;11.580;2024-03-07T03:16:04;26.55;;;17.83;;
14021;SDS011;7086;48.116;11.580;2024-03-07T03:18:33;28.77;;;20.83;;
14021;SDS011;7086;48.116;11.580;2024-03-07T03:21:01;25.00;;;19.50;;
14021;SDS011;7086;48.116;11.580;2024-03-07T03:23:29;29.73;;;21.67;;
14021;SDS011;7086;48.116;11.580;2024-03-07T03:25:57;28.55;;;21.50;;
14021;SDS011;7086;48.116;11.580;2024-03-07T03:28:24;25.15;;;19.30;;
14021;SDS011;7086;48.116;11.580;2024-03-07T03:30:53;22.25;;;19.45;;
14021;SDS011;7086;48.116;11.580;2024-03-07T03:33:21;23.63;;;21.15;;
14021;SDS011;7086;48.116;11.580;2024-03-07T03:35:49;32.72;;;22.17;;
14021;SDS011;7086;48.116;11.580;2024-03-07T03:38:16;24.50;;;20.00;;
14021;SDS011;7086;48.116;11.580;2024-03-07T03:40:45;28.52;;;22.05;;
14021;SDS011;7086;48.116;11.580;2024-03-07T03:43:12;31.25;;;20.48;;
14021;SDS011;7086;48.116;11.580;2024-03-07T03:45:40;28.48;;;20.65;;
14021;SDS011;7086;48.116;11.580;2024-03-07T03:48:09;27.45;;;21.55;;
14021;SDS011;7086;48.116;11.580;2024-03-07T03:50:37;24.23;;;21.13;;
14021;SDS011;7086;48.116;11.580;2024-03-07T03:53:04;27.80;;;21.05;;
14021;SDS011;7086;48.116;11.580;2024-03-07T03:55:33;31.30;;;22.65;;
14021;SDS011;7086;48.116;11.580;2024-03-07T03:58:01;28.45;;;21.98;;
14021;SDS011;7086;48.116;11.580;2024-03-07T04:00:30;26.20;;;19.67;;
14021;SDS011;7086;48.116;11.580;2024-03-07T04:02:58;28.70;;;21.80;;
14021;SDS011;7086;48.116;11.580;2024-03-07T04:05:27;29.98;;;21.52;;
14021;SDS011;7086;48.116;11.580;2024-03-07T04:07:55;37.28;;;23.05;;
14021;SDS011;7086;48.116;11.580;2024-03-07T04:10:23;32.85;;;22.40;;
14021;SDS011;7086;48.116;11.580;2024-03-07T04:12:51;29.50;;;22.52;;
14021;SDS011;7086;48.116;11.580;2024-03-07T04:15:19;31.95;;;20.85;;
14021;SDS011;7086;48.116;11.580;2024-03-07T04:17:47;25.30;;;19.95;;
14021;SDS011;7086;48.116;11.580;2024-03-07T04:20:14;29.90;;;21.05;;
14021;SDS011;7086;48.116;11.580;2024-03-07T04:22:43;28.98;;;20.88;;
14021;SDS011;7086;48.116;11.580;2024-03-07T04:25:11;24.05;;;21.20;;
14021;SDS011;7086;48.116;11.580;2024-03-07T04:27:39;26.27;;;22.38;;
14021;SDS011;7086;48.116;11.580;2024-03-07T04:30:07;25.73;;;22.90;;
14021;SDS011;7086;48.116;11.580;2024-03-07T04:32:36;32.63;;;23.55;;
14021;SDS011;7086;48.116;11.580;2024-03-07T04:35:04;28.20;;;21.70;;
14021;SDS011;7086;48.116;11.580;2024-03-07T04:37:35;31.95;;;22.88;;
14021;SDS011;7086;48.116;11.580;2024-03-07T04:40:06;36.40;;;24.27;;
14021;SDS011;7086;48.116;11.580;2024-03-07T04:42:41;37.45;;;25.75;;
14021;SDS011;7086;48.116;11.580;2024-03-07T04:45:10;38.88;;;24.60;;
14021;SDS011;7086;48.116;11.580;2024-03-07T04:47:39;35.58;;;24.50;;
14021;SDS011;7086;48.116;11.580;2024-03-07T04:50:08;33.58;;;24.75;;
14021;SDS011;7086;48.116;11.580;2024-03-07T04:52:36;30.48;;;24.35;;
14021;SDS011;7086;48.116;11.580;2024-03-07T04:55:06;29.20;;;23.77;;
14021;SDS011;7086;48.116;11.580;2024-03-07T04:57:35;32.33;;;24.35;;
14021;SDS011;7086;48.116;11.580;2024-03-07T05:00:05;34.55;;;25.83;;
14021;SDS011;7086;48.116;11.580;2024-03-07T05:02:38;26.17;;;23.27;;
14021;SDS011;7086;48.116;11.580;2024-03-07T05:05:06;29.48;;;24.70;;
14021;SDS011;7086;48.116;11.580;2024-03-07T05:07:34;37.58;;;25.08;;
14021;SDS011;7086;48.116;11.580;2024-03-07T05:10:02;32.15;;;23.80;;
14021;SDS011;7086;48.116;11.580;2024-03-07T05:12:31;32.40;;;24.90;;
14021;SDS011;7086;48.116;11.580;2024-03-07T05:14:58;35.78;;;24.58;;
14021;SDS011;7086;48.116;11.580;2024-03-07T05:17:26;33.97;;;24.52;;
14021;SDS011;7086;48.116;11.580;2024-03-07T05:19:56;29.98;;;21.25;;
14021;SDS011;7086;48.116;11.580;2024-03-07T05:22:25;27.95;;;22.27;;
14021;SDS011;7086;48.116;11.580;2024-03-07T05:24:55;36.08;;;25.65;;
14021;SDS011;7086;48.116;11.580;2024-03-07T05:27:24;31.90;;;23.48;;
14021;SDS011;7086;48.116;11.580;2024-03-07T05:29:54;32.17;;;24.23;;
14021;SDS011;7086;48.116;11.580;2024-03-07T05:32:23;34.78;;;25.83;;
14021;SDS011;7086;48.116;11.580;2024-03-07T05:34:52;28.17;;;23.85;;
14021;SDS011;7086;48.116;11.580;2024-03-07T05:37:19;29.10;;;24.65;;
14021;SDS011;7086;48.116;11.580;2024-03-07T05:39:48;35.10;;;24.45;;
14021;SDS011;7086;48.116;11.580;2024-03-07T05:42:16;40.92;;;26.10;;
14021;SDS011;7086;48.116;11.580;2024-03-07T05:44:44;33.42;;;23.25;;
14021;SDS011;7086;48.116;11.580;2024-03-07T05:47:13;31.08;;;23.02;;
14021;SDS011;7086;48.116;11.580;2024-03-07T05:49:42;29.35;;;24.30;;
14021;SDS011;7086;48.116;11.580;2024-03-07T05:52:09;41.72;;;28.08;;
14021;SDS011;7086;48.116;11.580;2024-03-07T05:54:37;35.42;;;24.75;;
14021;SDS011;7086;48.116;11.580;2024-03-07T05:57:05;36.72;;;24.23;;
14021;SDS011;7086;48.116;11.580;2024-03-07T05:59:33;27.10;;;22.65;;
14021;SDS011;7086;48.116;11.580;2024-03-07T06:02:01;38.65;;;27.15;;
14021;SDS011;7086;48.116;11.580;2024-03-07T06:04:31;43.08;;;28.42;;
14021;SDS011;7086;48.116;11.580;2024-03-07T06:06:59;37.95;;;26.08;;
14021;SDS011;7086;48.116;11.580;2024-03-07T06:09:26;37.58;;;25.98;;
14021;SDS011;7086;48.116;11.580;2024-03-07T06:11:53;33.28;;;26.73;;
14021;SDS011;7086;48.116;11.580;2024-03-07T06:14:21;37.35;;;26.70;;
14021;SDS011;7086;48.116;11.580;2024-03-07T06:16:49;33.10;;;27.90;;
14021;SDS011;7086;48.116;11.580;2024-03-07T06:19:18;42.30;;;28.05;;
14021;SDS011;7086;48.116;11.580;2024-03-07T06:21:47;39.22;;;28.23;;
14021;SDS011;7086;48.116;11.580;2024-03-07T06:24:14;46.40;;;28.25;;
14021;SDS011;7086;48.116;11.580;2024-03-07T06:26:43;36.25;;;26.52;;
14021;SDS011;7086;48.116;11.580;2024-03-07T06:29:13;35.92;;;26.38;;
14021;SDS011;7086;48.116;11.580;2024-03-07T06:31:42;40.58;;;28.00;;
14021;SDS011;7086;48.116;11.580;2024-03-07T06:34:11;34.53;;;24.90;;
14021;SDS011;7086;48.116;11.580;2024-03-07T06:36:39;32.03;;;26.00;;
14021;SDS011;7086;48.116;11.580;2024-03-07T06:39:08;34.83;;;26.40;;
14021;SDS011;7086;48.116;11.580;2024-03-07T06:41:38;35.20;;;30.05;;
14021;SDS011;7086;48.116;11.580;2024-03-07T06:44:12;37.63;;;28.70;;
14021;SDS011;7086;48.116;11.580;2024-03-07T06:46:40;31.98;;;26.63;;
14021;SDS011;7086;48.116;11.580;2024-03-07T06:49:08;37.97;;;26.05;;
14021;SDS011;7086;48.116;11.580;2024-03-07T06:51:36;41.30;;;27.08;;
14021;SDS011;7086;48.116;11.580;2024-03-07T06:54:06;44.72;;;30.05;;
14021;SDS011;7086;48.116;11.580;2024-03-07T06:56:36;34.03;;;26.42;;
14021;SDS011;7086;48.116;11.580;2024-03-07T06:59:05;39.03;;;26.85;;
14021;SDS011;7086;48.116;11.580;2024-03-07T07:01:34;31.40;;;26.65;;
14021;SDS011;7086;48.116;11.580;2024-03-07T07:04:02;31.52;;;26.52;;
14021;SDS011;7086;48.116;11.580;2024-03-07T07:06:34;32.67;;;27.73;;
14021;SDS011;7086;48.116;11.580;2024-03-07T07:09:01;36.55;;;26.92;;
14021;SDS011;7086;48.116;11.580;2024-03-07T07:11:32;40.47;;;26.45;;
14021;SDS011;7086;48.116;11.580;2024-03-07T07:14:00;34.58;;;26.05;;
14021;SDS011;7086;48.116;11.580;2024-03-07T07:16:42;44.25;;;29.25;;
14021;SDS011;7086;48.116;11.580;2024-03-07T07:19:10;30.20;;;25.27;;
14021;SDS011;7086;48.116;11.580;2024-03-07T07:21:38;32.20;;;27.27;;
14021;SDS011;7086;48.116;11.580;2024-03-07T07:24:07;32.30;;;26.88;;
14021;SDS011;7086;48.116;11.580;2024-03-07T07:26:39;37.85;;;26.27;;
14021;SDS011;7086;48.116;11.580;2024-03-07T07:29:07;35.83;;;26.77;;
14021;SDS011;7086;48.116;11.580;2024-03-07T07:31:36;43.88;;;28.20;;
14021;SDS011;7086;48.116;11.580;2024-03-07T07:34:04;34.13;;;27.00;;
14021;SDS011;7086;48.116;11.580;2024-03-07T07:36:31;43.10;;;26.52;;
14021;SDS011;7086;48.116;11.580;2024-03-07T07:38:59;40.00;;;28.48;;
14021;SDS011;7086;48.116;11.580;2024-03-07T07:41:28;42.13;;;25.88;;
14021;SDS011;7086;48.116;11.580;2024-03-07T07:43:59;40.28;;;26.50;;
14021;SDS011;7086;48.116;11.580;2024-03-07T07:46:27;40.72;;;26.45;;
14021;SDS011;7086;48.116;11.580;2024-03-07T07:48:54;30.98;;;24.75;;
14021;SDS011;7086;48.116;11.580;2024-03-07T07:51:22;39.63;;;27.13;;
14021;SDS011;7086;48.116;11.580;2024-03-07T07:53:50;41.05;;;27.10;;
14021;SDS011;7086;48.116;11.580;2024-03-07T07:56:22;33.85;;;24.65;;
14021;SDS011;7086;48.116;11.580;2024-03-07T07:58:50;37.25;;;25.55;;
14021;SDS011;7086;48.116;11.580;2024-03-07T08:01:22;40.15;;;28.48;;
14021;SDS011;7086;48.116;11.580;2024-03-07T08:03:51;41.45;;;26.52;;
14021;SDS011;7086;48.116;11.580;2024-03-07T08:06:20;40.72;;;27.95;;
14021;SDS011;7086;48.116;11.580;2024-03-07T08:08:53;40.08;;;26.70;;
14021;SDS011;7086;48.116;11.580;2024-03-07T08:11:21;41.40;;;26.13;;
14021;SDS011;7086;48.116;11.580;2024-03-07T08:13:49;37.50;;;28.23;;
14021;SDS011;7086;48.116;11.580;2024-03-07T08:16:17;35.75;;;25.48;;
14021;SDS011;7086;48.116;11.580;2024-03-07T08:18:49;37.15;;;28.00;;
14021;SDS011;7086;48.116;11.580;2024-03-07T08:21:18;36.13;;;26.63;;
14021;SDS011;7086;48.116;11.580;2024-03-07T08:23:46;35.42;;;25.77;;
14021;SDS011;7086;48.116;11.580;2024-03-07T08:26:16;44.85;;;29.92;;
14021;SDS011;7086;48.116;11.580;2024-03-07T08:28:45;40.58;;;27.10;;
14021;SDS011;7086;48.116;11.580;2024-03-07T08:31:13;38.55;;;28.35;;
14021;SDS011;7086;48.116;11.580;2024-03-07T08:33:50;40.75;;;25.55;;
14021;SDS011;7086;48.116;11.580;2024-03-07T08:36:19;41.45;;;28.30;;
14021;SDS011;7086;48.116;11.580;2024-03-07T08:38:49;38.38;;;25.95;;
14021;SDS011;7086;48.116;11.580;2024-03-07T08:41:21;33.25;;;25.02;;
14021;SDS011;7086;48.116;11.580;2024-03-07T08:43:51;40.65;;;26.17;;
14021;SDS011;7086;48.116;11.580;2024-03-07T08:46:29;36.03;;;28.27;;
14021;SDS011;7086;48.116;11.580;2024-03-07T08:48:59;39.67;;;27.17;;
14021;SDS011;7086;48.116;11.580;2024-03-07T08:51:29;38.92;;;26.80;;
14021;SDS011;7086;48.116;11.580;2024-03-07T08:54:02;38.30;;;25.52;;
14021;SDS011;7086;48.116;11.580;2024-03-07T08:56:35;39.25;;;25.95;;
14021;SDS011;7086;48.116;11.580;2024-03-07T08:59:05;36.95;;;25.45;;
14021;SDS011;7086;48.116;11.580;2024-03-07T09:01:43;43.40;;;26.75;;
14021;SDS011;7086;48.116;11.580;2024-03-07T09:04:18;36.40;;;25.95;;
14021;SDS011;7086;48.116;11.580;2024-03-07T09:06:52;37.65;;;26.10;;
14021;SDS011;7086;48.116;11.580;2024-03-07T09:09:24;34.75;;;24.65;;
14021;SDS011;7086;48.116;11.580;2024-03-07T09:11:52;35.72;;;25.13;;
14021;SDS011;7086;48.116;11.580;2024-03-07T09:14:23;36.50;;;25.33;;
14021;SDS011;7086;48.116;11.580;2024-03-07T09:16:51;34.55;;;24.67;;
14021;SDS011;7086;48.116;11.580;2024-03-07T09:19:24;43.30;;;27.20;;
14021;SDS011;7086;48.116;11.580;2024-03-07T09:21:57;34.90;;;25.23;;
14021;SDS011;7086;48.116;11.580;2024-03-07T09:24:35;30.70;;;23.00;;
14021;SDS011;7086;48.116;11.580;2024-03-07T09:27:08;40.13;;;27.25;;
14021;SDS011;7086;48.116;11.580;2024-03-07T09:29:40;36.20;;;25.20;;
14021;SDS011;7086;48.116;11.580;2024-03-07T09:32:18;36.75;;;25.52;;
14021;SDS011;7086;48.116;11.580;2024-03-07T09:34:54;35.25;;;23.00;;
14021;SDS011;7086;48.116;11.580;2024-03-07T09:37:27;35.97;;;24.77;;
14021;SDS011;7086;48.116;11.580;2024-03-07T09:40:02;38.08;;;25.42;;
14021;SDS011;7086;48.116;11.580;2024-03-07T09:42:34;31.92;;;23.50;;
14021;SDS011;7086;48.116;11.580;2024-03-07T09:45:18;30.98;;;23.85;;
14021;SDS011;7086;48.116;11.580;2024-03-07T09:47:58;31.17;;;22.38;;
14021;SDS011;7086;48.116;11.580;2024-03-07T09:50:50;35.50;;;25.88;;
14021;SDS011;7086;48.116;11.580;2024-03-07T09:56:39;32.33;;;22.92;;
14021;SDS011;7086;48.116;11.580;2024-03-07T09:59:17;31.60;;;23.08;;
14021;SDS011;7086;48.116;11.580;2024-03-07T10:02:24;32.60;;;21.85;;
14021;SDS011;7086;48.116;11.580;2024-03-07T10:05:26;32.95;;;23.27;;
14021;SDS011;7086;48.116;11.580;2024-03-07T10:08:13;32.20;;;22.70;;
14021;SDS011;7086;48.116;11.580;2024-03-07T10:10:55;32.53;;;23.50;;
14021;SDS011;7086;48.116;11.580;2024-03-07T10:13:50;33.17;;;22.83;;
14021;SDS011;7086;48.116;11.580;2024-03-07T10:16:28;26.23;;;18.98;;
14021;SDS011;7086;48.116;11.580;2024-03-07T10:19:00;33.45;;;21.67;;
14021;SDS011;7086;48.116;11.580;2024-03-07T10:21:47;35.60;;;23.98;;
14021;SDS011;7086;48.116;11.580;2024-03-07T10:24:31;30.85;;;21.05;;
14021;SDS011;7086;48.116;11.580;2024-03-07T10:30:26;32.08;;;21.65;;
14021;SDS011;7086;48.116;11.580;2024-03-07T10:33:28;31.63;;;23.40;;
14021;SDS011;7086;48.116;11.580;2024-03-07T10:36:12;33.47;;;22.38;;
14021;SDS011;7086;48.116;11.580;2024-03-07T10:39:27;28.23;;;21.52;;
14021;SDS011;7086;48.116;11.580;2024-03-07T10:42:26;33.55;;;23.85;;
14021;SDS011;7086;48.116;11.580;2024-03-07T10:45:22;31.17;;;21.50;;
14021;SDS011;7086;48.116;11.580;2024-03-07T10:47:59;30.75;;;22.52;;
14021;SDS011;7086;48.116;11.580;2024-03-07T10:50:39;30.52;;;21.80;;
14021;SDS011;7086;48.116;11.580;2024-03-07T10:53:31;29.30;;;21.65;;
14021;SDS011;7086;48.116;11.580;2024-03-07T10:56:26;29.27;;;21.13;;
14021;SDS011;7086;48.116;11.580;2024-03-07T10:59:21;28.35;;;20.67;;
14021;SDS011;7086;48.116;11.580;2024-03-07T11:02:15;30.33;;;21.38;;
14021;SDS011;7086;48.116;11.580;2024-03-07T11:05:38;25.25;;;19.58;;
14021;SDS011;7086;48.116;11.580;2024-03-07T11:08:21;26.42;;;18.58;;
14021;SDS011;7086;48.116;11.580;2024-03-07T11:11:13;33.05;;;22.38;;
14021;SDS011;7086;48.116;11.580;2024-03-07T11:14:11;27.92;;;21.08;;
14021;SDS011;7086;48.116;11.580;2024-03-07T11:17:11;28.45;;;19.80;;
14021;SDS011;7086;48.116;11.580;2024-03-07T11:20:09;29.33;;;19.52;;
14021;SDS011;7086;48.116;11.580;2024-03-07T11:22:59;25.48;;;18.45;;
14021;SDS011;7086;48.116;11.580;2024-03-07T11:26:12;24.90;;;19.40;;
14021;SDS011;7086;48.116;11.580;2024-03-07T11:28:58;23.25;;;18.23;;
14021;SDS011;7086;48.116;11.580;2024-03-07T11:32:21;25.35;;;18.65;;
14021;SDS011;7086;48.116;11.580;2024-03-07T11:35:14;24.67;;;17.52;;
14021;SDS011;7086;48.116;11.580;2024-03-07T11:37:58;26.15;;;18.27;;
14021;SDS011;7086;48.116;11.580;2024-03-07T11:41:01;20.50;;;14.98;;
14021;SDS011;7086;48.116;11.580;2024-03-07T11:44:13;23.63;;;17.27;;
14021;SDS011;7086;48.116;11.580;2024-03-07T11:47:18;23.40;;;17.77;;
14021;SDS011;7086;48.116;11.580;2024-03-07T11:50:14;23.55;;;17.08;;
14021;SDS011;7086;48.116;11.580;2024-03-07T11:53:27;26.17;;;16.45;;
14021;SDS011;7086;48.116;11.580;2024-03-07T11:56:31;22.30;;;16.45;;
14021;SDS011;7086;48.116;11.580;2024-03-07T11:59:14;22.10;;;15.73;;
14021;SDS011;7086;48.116;11.580;2024-03-07T12:02:20;23.35;;;17.13;;
14021;SDS011;7086;48.116;11.580;2024-03-07T12:05:24;22.52;;;16.13;;
14021;SDS011;7086;48.116;11.580;2024-03-07T12:08:10;24.90;;;17.42;;
14021;SDS011;7086;48.116;11.580;2024-03-07T12:14:20;23.25;;;15.90;;
14021;SDS011;7086;48.116;11.580;2024-03-07T12:16:54;26.75;;;15.57;;
14021;SDS011;7086;48.116;11.580;2024-03-07T12:19:40;21.90;;;15.38;;
14021;SDS011;7086;48.116;11.580;2024-03-07T12:22:25;18.83;;;14.07;;
14021;SDS011;7086;48.116;11.580;2024-03-07T12:25:08;20.63;;;16.05;;
14021;SDS011;7086;48.116;11.580;2024-03-07T12:27:43;24.25;;;16.95;;
14021;SDS011;7086;48.116;11.580;2024-03-07T12:30:18;28.52;;;17.83;;
14021;SDS011;7086;48.116;11.580;2024-03-07T12:32:52;25.58;;;16.33;;
14021;SDS011;7086;48.116;11.580;2024-03-07T12:35:24;24.48;;;18.02;;
14021;SDS011;7086;48.116;11.580;2024-03-07T12:38:05;24.98;;;18.20;;
14021;SDS011;7086;48.116;11.580;2024-03-07T12:44:12;23.90;;;17.73;;
14021;SDS011;7086;48.116;11.580;2024-03-07T12:47:05;26.08;;;17.63;;
14021;SDS011;7086;48.116;11.580;2024-03-07T12:49:55;26.35;;;18.63;;
14021;SDS011;7086;48.116;11.580;2024-03-07T12:52:34;23.73;;;18.00;;
14021;SDS011;7086;48.116;11.580;2024-03-07T12:55:08;26.25;;;19.33;;
14021;SDS011;7086;48.116;11.580;2024-03-07T12:57:47;24.02;;;16.02;;
14021;SDS011;7086;48.116;11.580;2024-03-07T13:00:29;26.88;;;18.35;;
14021;SDS011;7086;48.116;11.580;2024-03-07T13:03:04;23.52;;;16.48;;
14021;SDS011;7086;48.116;11.580;2024-03-07T13:05:41;24.40;;;16.25;;
14021;SDS011;7086;48.116;11.580;2024-03-07T13:08:13;22.73;;;17.02;;
14021;SDS011;7086;48.116;11.580;2024-03-07T13:10:56;22.15;;;15.90;;
14021;SDS011;7086;48.116;11.580;2024-03-07T13:13:26;26.45;;;17.45;;
14021;SDS011;7086;48.116;11.580;2024-03-07T13:16:17;28.52;;;17.40;;
14021;SDS011;7086;48.116;11.580;2024-03-07T13:19:17;26.15;;;16.90;;
14021;SDS011;7086;48.116;11.580;2024-03-07T13:21:52;20.95;;;16.58;;
14021;SDS011;7086;48.116;11.580;2024-03-07T13:24:57;24.52;;;17.55;;
14021;SDS011;7086;48.116;11.580;2024-03-07T13:27:43;19.75;;;14.88;;
14021;SDS011;7086;48.116;11.580;2024-03-07T13:30:37;27.60;;;17.60;;
14021;SDS011;7086;48.116;11.580;2024-03-07T13:33:41;26.08;;;16.92;;
14021;SDS011;7086;48.116;11.580;2024-03-07T13:36:30;20.38;;;15.95;;
14021;SDS011;7086;48.116;11.580;2024-03-07T13:39:21;25.08;;;17.77;;
14021;SDS011;7086;48.116;11.580;2024-03-07T13:42:03;22.30;;;16.25;;
14021;SDS011;7086;48.116;11.580;2024-03-07T13:44:43;24.10;;;17.52;;
14021;SDS011;7086;48.116;11.580;2024-03-07T13:47:22;24.33;;;18.17;;
14021;SDS011;7086;48.116;11.580;2024-03-07T13:50:08;29.30;;;19.20;;
14021;SDS011;7086;48.116;11.580;2024-03-07T13:52:55;20.02;;;15.77;;
14021;SDS011;7086;48.116;11.580;2024-03-07T13:55:41;22.55;;;16.35;;
14021;SDS011;7086;48.116;11.580;2024-03-07T13:58:34;20.70;;;15.30;;
14021;SDS011;7086;48.116;11.580;2024-03-07T14:01:34;23.45;;;13.65;;
14021;SDS011;7086;48.116;11.580;2024-03-07T14:08:12;21.63;;;15.73;;
14021;SDS011;7086;48.116;11.580;2024-03-07T14:14:57;19.55;;;14.55;;
14021;SDS011;7086;48.116;11.580;2024-03-07T14:18:18;21.95;;;16.75;;
14021;SDS011;7086;48.116;11.580;2024-03-07T14:21:41;22.88;;;17.33;;
14021;SDS011;7086;48.116;11.580;2024-03-07T14:28:03;22.77;;;15.57;;
14021;SDS011;7086;48.116;11.580;2024-03-07T14:30:58;21.13;;;15.15;;
14021;SDS011;7086;48.116;11.580;2024-03-07T14:33:54;24.30;;;18.70;;
14021;SDS011;7086;48.116;11.580;2024-03-07T14:36:50;22.92;;;16.48;;
14021;SDS011;7086;48.116;11.580;2024-03-07T14:39:41;24.77;;;18.10;;
14021;SDS011;7086;48.116;11.580;2024-03-07T14:42:41;27.02;;;19.42;;
14021;SDS011;7086;48.116;11.580;2024-03-07T14:45:15;25.27;;;18.30;;
14021;SDS011;7086;48.116;11.580;2024-03-07T14:47:54;28.42;;;20.23;;
14021;SDS011;7086;48.116;11.580;2024-03-07T14:50:24;25.05;;;18.15;;
14021;SDS011;7086;48.116;11.580;2024-03-07T14:53:09;24.08;;;17.13;;
14021;SDS011;7086;48.116;11.580;2024-03-07T14:56:27;25.65;;;18.70;;
14021;SDS011;7086;48.116;11.580;2024-03-07T14:58:55;24.20;;;17.40;;
14021;SDS011;7086;48.116;11.580;2024-03-07T15:01:29;17.75;;;13.07;;
14021;SDS011;7086;48.116;11.580;2024-03-07T15:03:59;17.83;;;14.10;;
14021;SDS011;7086;48.116;11.580;2024-03-07T15:06:36;22.15;;;16.98;;
14021;SDS011;7086;48.116;11.580;2024-03-07T15:09:05;22.90;;;16.20;;
14021;SDS011;7086;48.116;11.580;2024-03-07T15:11:36;22.25;;;15.85;;
14021;SDS011;7086;48.116;11.580;2024-03-07T15:14:10;20.17;;;15.43;;
14021;SDS011;7086;48.116;11.580;2024-03-07T15:16:49;20.77;;;17.67;;
14021;SDS011;7086;48.116;11.580;2024-03-07T15:24:22;24.70;;;16.80;;
14021;SDS011;7086;48.116;11.580;2024-03-07T15:32:36;20.98;;;15.65;;
14021;SDS011;7086;48.116;11.580;2024-03-07T15:35:18;16.88;;;13.13;;
14021;SDS011;7086;48.116;11.580;2024-03-07T15:38:01;19.67;;;13.35;;
14021;SDS011;7086;48.116;11.580;2024-03-07T15:41:28;18.48;;;13.88;;
14021;SDS011;7086;48.116;11.580;2024-03-07T15:44:19;16.35;;;12.82;;
14021;SDS011;7086;48.116;11.580;2024-03-07T15:47:20;19.13;;;14.02;;
14021;SDS011;7086;48.116;11.580;2024-03-07T15:49:50;15.73;;;11.18;;
14021;SDS011;7086;48.116;11.580;2024-03-07T15:52:19;14.35;;;10.20;;